Time;durP1;ratioP1;P1;durP2;ratioP2;P2;SDS_P1;SDS_P2;PMS_P1;PMS_P2;Temp;Humidity;BMP_temperature;BMP_pressure;BME280_temperature;BME280_humidity;BME280_pressure;Samples;Min_cycle;Max_cycle;Signal;HPM_P1;HPM_P2
2023/03/28 00:01:01;;;;;;;0.10;0.10;;;;;;;10.80;59.45;101096.97;7359259;19;20051;-59
2023/03/28 00:03:27;;;;;;;0.00;0.00;;;;;;;10.80;59.76;101099.56;7358339;19;20026;-59
2023/03/28 00:05:59;;;;;;;0.03;0.03;;;;;;;10.83;59.38;101102.13;7360558;19;20014;-59
2023/03/28 00:08:27;;;;;;;0.08;0.08;;;;;;;10.78;61.64;101093.50;7353643;19;20010;-59
2023/03/28 00:11:01;;;;;;;0.10;0.10;;;;;;;10.68;60.36;101065.81;7360121;19;20018;-58
2023/03/28 00:13:28;;;;;;;0.00;0.00;;;;;;;10.73;61.50;101084.88;7356104;19;20485;-58
2023/03/28 00:15:54;;;;;;;0.00;0.00;;;;;;;10.70;61.73;101079.72;7357854;19;20026;-59
2023/03/28 00:18:20;;;;;;;0.00;0.00;;;;;;;10.54;62.55;101053.88;7356144;19;20015;-58
2023/03/28 00:20:45;;;;;;;0.00;0.00;;;;;;;10.61;60.72;101078.97;7357127;19;20056;-59
2023/03/28 00:23:11;;;;;;;0.00;0.00;;;;;;;10.53;62.77;101062.56;7357477;19;20014;-59
2023/03/28 00:25:42;;;;;;;0.00;0.00;;;;;;;10.52;61.93;101060.84;7359507;19;20027;-58
2023/03/28 00:28:08;;;;;;;0.00;0.00;;;;;;;10.49;63.80;101063.53;7355694;19;20011;-58
2023/03/28 00:30:33;;;;;;;0.00;0.00;;;;;;;10.45;63.64;101059.25;7357675;19;20011;-58
2023/03/28 00:32:59;;;;;;;0.00;0.00;;;;;;;10.43;63.98;101050.56;7355821;19;20344;-59
2023/03/28 00:35:25;;;;;;;0.00;0.00;;;;;;;10.39;64.52;101054.09;7356205;19;20003;-58
2023/03/28 00:37:56;;;;;;;0.00;0.00;;;;;;;10.39;63.77;101054.09;7359383;19;20344;-59
2023/03/28 00:40:22;;;;;;;0.10;0.10;;;;;;;10.35;64.14;101047.22;7355137;19;20670;-58
2023/03/28 00:42:48;;;;;;;0.00;0.00;;;;;;;10.33;64.89;101043.75;7358051;19;20110;-59
2023/03/28 00:45:13;;;;;;;0.00;0.00;;;;;;;10.32;64.61;101042.03;7357148;19;20093;-59
2023/03/28 00:47:48;;;;;;;0.00;0.00;;;;;;;10.32;64.32;101036.81;7358568;19;20010;-58
2023/03/28 00:50:32;;;;;;;0.10;0.10;;;;;;;10.14;62.77;101010.09;7356523;19;20015;-58
2023/03/28 00:53:15;;;;;;;0.00;0.00;;;;;;;10.31;63.18;101032.50;7353498;19;20018;-58
2023/03/28 00:55:54;;;;;;;0.00;0.00;;;;;;;10.28;63.63;101029.91;7358006;19;20025;-59
2023/03/28 00:58:25;;;;;;;0.10;0.10;;;;;;;10.26;64.24;101043.00;7355952;19;20014;-58
2023/03/28 01:00:53;;;;;;;0.10;0.10;;;;;;;10.22;65.27;101014.34;7356924;19;20733;-58
2023/03/28 01:03:21;;;;;;;0.00;0.00;;;;;;;10.23;65.63;101016.03;7354903;19;20704;-58
2023/03/28 01:05:47;;;;;;;0.00;0.00;;;;;;;10.20;65.13;101014.38;7358554;19;20107;-58
2023/03/28 01:08:21;;;;;;;0.00;0.00;;;;;;;10.20;65.28;101001.31;7349941;19;20596;-58
2023/03/28 01:10:47;;;;;;;0.10;0.10;;;;;;;10.17;66.69;100997.88;7356062;19;20015;-58
2023/03/28 01:13:19;;;;;;;0.05;0.05;;;;;;;10.17;66.99;100993.53;7354665;19;22294;-58
2023/03/28 01:15:47;;;;;;;0.10;0.10;;;;;;;10.06;67.39;100962.38;7356423;19;20535;-58
2023/03/28 01:18:15;;;;;;;0.10;0.10;;;;;;;10.16;66.67;100976.16;7357754;19;20127;-59
2023/03/28 01:21:05;;;;;;;0.00;0.00;;;;;;;10.18;66.33;100963.06;7352632;19;20528;-58
2023/03/28 01:23:42;;;;;;;0.00;0.00;;;;;;;10.19;66.62;100956.94;7255780;19;2004351;-59
2023/03/28 01:26:32;;;;;;;0.00;0.00;;;;;;;10.19;66.77;100946.50;7356074;19;20010;-59
2023/03/28 01:29:06;;;;;;;0.00;0.00;;;;;;;10.18;68.06;100945.66;7353805;19;20010;-58
2023/03/28 01:31:45;;;;;;;0.10;0.10;;;;;;;10.20;66.47;100937.81;7347582;19;20058;-59
2023/03/28 01:34:49;;;;;;;0.08;0.08;;;;;;;10.23;66.27;100929.91;7356719;19;20434;-58
2023/03/28 01:37:31;;;;;;;0.00;0.00;;;;;;;10.24;67.33;100934.28;7253645;19;2004530;-59
2023/03/28 01:40:18;;;;;;;0.10;0.10;;;;;;;10.25;67.97;100928.19;7354749;19;20027;-58
2023/03/28 01:43:13;;;;;;;0.00;0.00;;;;;;;10.27;64.80;100924.66;7355436;19;20522;-58
2023/03/28 01:46:04;;;;;;;0.00;0.00;;;;;;;10.28;66.76;100917.69;7251455;19;2004477;-58
2023/03/28 01:49:12;;;;;;;0.00;0.00;;;;;;;10.27;65.88;100913.34;7253938;19;2004547;-58
2023/03/28 01:51:46;;;;;;;0.00;0.00;;;;;;;10.24;66.81;100908.19;7255053;19;2004401;-58
2023/03/28 01:54:27;;;;;;;0.00;0.00;;;;;;;10.29;66.10;100916.78;7353669;19;20121;-61
2023/03/28 01:57:01;;;;;;;0.00;0.00;;;;;;;10.28;68.12;100904.63;7354458;19;20094;-58
2023/03/28 01:59:38;;;;;;;0.08;0.08;;;;;;;10.29;67.08;100907.25;7343841;19;20018;-58
2023/03/28 02:02:21;;;;;;;0.00;0.00;;;;;;;10.28;66.60;100900.28;7349473;19;20021;-58
2023/03/28 02:04:47;;;;;;;0.00;0.00;;;;;;;10.26;67.43;100909.88;7350867;19;20793;-58
2023/03/28 02:07:17;;;;;;;0.00;0.00;;;;;;;10.24;68.23;100908.19;7351510;19;20049;-59
2023/03/28 02:09:45;;;;;;;0.00;0.00;;;;;;;10.24;68.35;100916.00;7351752;19;20010;-58
2023/03/28 02:12:36;;;;;;;0.03;0.03;;;;;;;10.25;66.78;100910.78;7351975;19;20015;-58
2023/03/28 02:15:04;;;;;;;0.03;0.03;;;;;;;10.24;69.44;100908.19;7245192;19;2004577;-58
2023/03/28 02:17:37;;;;;;;0.10;0.10;;;;;;;10.24;69.04;100892.53;7352722;19;20010;-58
2023/03/28 02:20:13;;;;;;;0.00;0.00;;;;;;;10.25;68.64;100889.06;7346753;19;20014;-58
2023/03/28 02:22:59;;;;;;;0.00;0.00;;;;;;;10.26;66.21;100885.53;7351101;19;20707;-58
2023/03/28 02:25:25;;;;;;;0.10;0.10;;;;;;;10.22;67.95;100874.25;7353088;19;20025;-59
2023/03/28 02:27:54;;;;;;;0.00;0.00;;;;;;;10.21;67.41;100874.28;7342158;19;20011;-58
2023/03/28 02:30:21;;;;;;;0.00;0.00;;;;;;;10.18;67.42;100866.50;7342726;19;20236;-57
2023/03/28 02:32:49;;;;;;;0.00;0.00;;;;;;;10.15;65.59;100851.78;7347804;19;20371;-56
2023/03/28 02:35:19;;;;;;;0.10;0.10;;;;;;;10.01;65.24;100830.31;7350641;19;20014;-58
2023/03/28 02:38:11;;;;;;;0.08;0.08;;;;;;;10.06;66.19;100847.59;7352353;19;20014;-57
2023/03/28 02:41:02;;;;;;;0.00;0.00;;;;;;;9.99;67.25;100840.78;7251292;19;2004528;-57
2023/03/28 02:43:32;;;;;;;0.00;0.00;;;;;;;9.94;68.42;100819.13;7250998;19;2004845;-57
2023/03/28 02:46:26;;;;;;;0.10;0.10;;;;;;;9.91;67.64;100806.13;7349813;19;20042;-57
2023/03/28 02:49:00;;;;;;;0.00;0.00;;;;;;;9.86;68.68;100784.47;7250195;19;2004544;-58
2023/03/28 02:51:55;;;;;;;0.00;0.00;;;;;;;9.83;68.52;100785.41;7351516;19;20740;-57
2023/03/28 02:54:24;;;;;;;0.00;0.00;;;;;;;9.78;69.59;100774.22;7250062;19;2004711;-58
2023/03/28 02:56:49;;;;;;;0.00;0.00;;;;;;;9.77;69.36;100785.50;7351703;19;20021;-58
2023/03/28 02:59:29;;;;;;;0.00;0.00;;;;;;;9.78;68.58;100789.84;7356673;19;21275;-57
2023/03/28 03:01:55;;;;;;;0.10;0.10;;;;;;;9.74;69.32;100782.97;7357516;19;20021;-58
2023/03/28 03:04:20;;;;;;;0.00;0.00;;;;;;;9.74;69.73;100782.09;7343827;19;20014;-58
2023/03/28 03:06:47;;;;;;;0.00;0.00;;;;;;;9.57;70.04;100759.78;7348420;19;20018;-57
2023/03/28 03:09:13;;;;;;;0.00;0.00;;;;;;;9.72;68.68;100784.72;7357214;19;20007;-57
2023/03/28 03:11:38;;;;;;;0.00;0.00;;;;;;;9.71;68.67;100777.78;7357369;19;20019;-58
2023/03/28 03:14:04;;;;;;;0.00;0.00;;;;;;;9.71;68.81;100776.94;7360033;19;20010;-57
2023/03/28 03:16:29;;;;;;;0.03;0.03;;;;;;;9.71;68.74;100766.50;7358555;19;20055;-58
2023/03/28 03:18:58;;;;;;;0.00;0.00;;;;;;;9.71;68.38;100762.16;7349420;19;20485;-58
2023/03/28 03:21:24;;;;;;;0.00;0.00;;;;;;;9.70;68.03;100756.97;7312598;19;20014;-58
2023/03/28 03:23:51;;;;;;;0.00;0.00;;;;;;;9.69;67.77;100744.81;7348041;19;21314;-58
2023/03/28 03:26:17;;;;;;;0.00;0.00;;;;;;;9.60;68.54;100723.25;7347534;19;20018;-58
2023/03/28 03:28:45;;;;;;;0.08;0.08;;;;;;;9.62;68.68;100726.66;7351809;19;20141;-58
2023/03/28 03:31:11;;;;;;;0.00;0.00;;;;;;;9.70;69.47;100742.19;7354476;19;20844;-58
2023/03/28 03:33:36;;;;;;;0.10;0.10;;;;;;;9.71;69.04;100732.59;7349200;19;20021;-58
2023/03/28 03:36:04;;;;;;;0.00;0.00;;;;;;;9.69;69.07;100730.03;7355611;19;20021;-57
2023/03/28 03:38:30;;;;;;;0.00;0.00;;;;;;;9.71;69.13;100720.44;7349128;19;20011;-58
2023/03/28 03:40:55;;;;;;;0.00;0.00;;;;;;;9.72;68.19;100718.69;7356422;19;20051;-58
2023/03/28 03:43:21;;;;;;;0.00;0.00;;;;;;;9.70;68.95;100707.44;7355609;19;20006;-57
2023/03/28 03:45:46;;;;;;;0.00;0.00;;;;;;;9.70;69.18;100703.06;7353917;19;20015;-57
2023/03/28 03:48:11;;;;;;;0.10;0.10;;;;;;;9.68;69.04;100702.25;7352391;19;20326;-57
2023/03/28 03:50:37;;;;;;;0.00;0.00;;;;;;;9.71;68.86;100694.34;7349877;19;20129;-58
2023/03/28 03:53:03;;;;;;;0.00;0.00;;;;;;;9.72;68.75;100700.41;7355695;19;20766;-57
2023/03/28 03:55:29;;;;;;;0.10;0.10;;;;;;;9.72;69.16;100695.22;7353492;19;20051;-57
2023/03/28 03:57:54;;;;;;;0.00;0.00;;;;;;;9.71;69.17;100683.06;7353208;19;20046;-57
2023/03/28 04:00:20;;;;;;;0.00;0.00;;;;;;;9.69;69.80;100679.63;7354497;19;20019;-58
2023/03/28 04:02:46;;;;;;;0.10;0.10;;;;;;;9.60;69.84;100665.88;7354047;19;20015;-58
2023/03/28 04:05:12;;;;;;;0.00;0.00;;;;;;;9.65;69.78;100670.16;7354929;19;20018;-58
2023/03/28 04:07:37;;;;;;;0.00;0.00;;;;;;;9.65;69.95;100667.53;7355146;19;20010;-58
2023/03/28 04:10:04;;;;;;;0.00;0.00;;;;;;;9.63;69.71;100664.97;7355815;19;20471;-57
2023/03/28 04:12:29;;;;;;;0.10;0.10;;;;;;;9.54;70.22;100652.97;7353278;19;20027;-58
2023/03/28 04:14:55;;;;;;;0.00;0.00;;;;;;;9.59;70.59;100653.75;7353802;19;20019;-59
2023/03/28 04:17:22;;;;;;;0.00;0.00;;;;;;;9.59;70.33;100655.50;7355141;19;20018;-57
2023/03/28 04:19:48;;;;;;;0.10;0.10;;;;;;;9.59;70.17;100658.97;7352097;19;20014;-58
2023/03/28 04:22:17;;;;;;;0.00;0.00;;;;;;;9.51;70.08;100634.78;7349135;19;20029;-59
2023/03/28 04:24:43;;;;;;;0.00;0.00;;;;;;;9.60;69.91;100642.41;7353957;19;20022;-58
2023/03/28 04:27:09;;;;;;;0.00;0.00;;;;;;;9.60;70.19;100641.56;7354899;19;20933;-57
2023/03/28 04:29:35;;;;;;;0.00;0.00;;;;;;;9.57;70.44;100639.00;7350167;19;20010;-58
2023/03/28 04:32:04;;;;;;;0.00;0.00;;;;;;;9.59;70.23;100650.28;7350856;19;20009;-57
2023/03/28 04:34:32;;;;;;;0.00;0.00;;;;;;;9.46;69.36;100631.38;7353098;19;20478;-57
2023/03/28 04:37:02;;;;;;;0.00;0.00;;;;;;;9.56;70.40;100638.16;7356597;19;20034;-57
2023/03/28 04:39:29;;;;;;;0.00;0.00;;;;;;;9.46;69.31;100628.78;7352272;19;20010;-58
2023/03/28 04:41:55;;;;;;;0.03;0.03;;;;;;;9.44;70.69;100625.38;7353777;19;20650;-57
2023/03/28 04:44:21;;;;;;;0.10;0.10;;;;;;;9.51;70.13;100634.78;7354072;19;20081;-57
2023/03/28 04:46:47;;;;;;;0.00;0.00;;;;;;;9.48;70.13;100624.41;7352745;19;20033;-57
2023/03/28 04:49:13;;;;;;;0.00;0.00;;;;;;;9.48;70.63;100618.31;7354632;19;20011;-57
2023/03/28 04:51:39;;;;;;;0.10;0.10;;;;;;;9.46;71.18;100614.91;7352471;19;20015;-57
2023/03/28 04:54:04;;;;;;;0.10;0.10;;;;;;;9.46;69.88;100610.53;7351963;19;20682;-58
2023/03/28 04:56:30;;;;;;;0.00;0.00;;;;;;;9.43;70.91;100605.41;7351456;19;20006;-57
2023/03/28 04:58:56;;;;;;;0.00;0.00;;;;;;;9.44;70.34;100594.09;7354088;19;20010;-58
2023/03/28 05:01:24;;;;;;;0.00;0.00;;;;;;;9.31;70.80;100574.34;7349911;19;20015;-58
2023/03/28 05:03:50;;;;;;;0.00;0.00;;;;;;;9.41;70.80;100586.31;7353432;19;20010;-58
2023/03/28 05:06:15;;;;;;;0.00;0.00;;;;;;;9.40;70.77;100584.59;7353925;19;20030;-59
2023/03/28 05:08:42;;;;;;;0.08;0.08;;;;;;;9.38;69.84;100575.97;7353153;19;20017;-58
2023/03/28 05:11:08;;;;;;;0.00;0.00;;;;;;;9.36;70.80;100573.38;7351507;19;20031;-58
2023/03/28 05:13:34;;;;;;;0.05;0.05;;;;;;;9.34;70.15;100579.53;7349496;19;21265;-58
2023/03/28 05:15:59;;;;;;;0.00;0.00;;;;;;;9.31;70.41;100574.34;7352221;19;20010;-58
2023/03/28 05:18:25;;;;;;;0.00;0.00;;;;;;;9.28;70.79;100572.69;7353640;19;20018;-58
2023/03/28 05:20:50;;;;;;;0.00;0.00;;;;;;;9.26;70.50;100566.63;7346958;19;21523;-58
2023/03/28 05:23:16;;;;;;;0.00;0.00;;;;;;;9.25;70.73;100558.84;7353000;19;20014;-58
2023/03/28 05:25:42;;;;;;;0.00;0.00;;;;;;;9.24;70.76;100562.34;7351293;19;20010;-58
2023/03/28 05:28:07;;;;;;;0.00;0.00;;;;;;;9.22;71.03;100556.28;7352589;19;20110;-57
2023/03/28 05:30:33;;;;;;;0.00;0.00;;;;;;;9.22;70.77;100553.69;7353126;19;20010;-58
2023/03/28 05:32:59;;;;;;;0.00;0.00;;;;;;;9.21;71.73;100554.56;7349914;19;20018;-58
2023/03/28 05:35:25;;;;;;;0.00;0.00;;;;;;;9.20;71.94;100539.84;7351832;19;20007;-58
2023/03/28 05:37:50;;;;;;;0.00;0.00;;;;;;;9.21;72.35;100536.34;7351564;19;20736;-58
2023/03/28 05:40:16;;;;;;;0.10;0.10;;;;;;;9.17;71.79;100516.44;7350519;19;20014;-58
2023/03/28 05:42:41;;;;;;;0.00;0.00;;;;;;;9.21;72.01;100521.56;7354491;19;20015;-57
2023/03/28 05:45:08;;;;;;;0.10;0.10;;;;;;;9.20;72.36;100517.25;7347896;19;20018;-58
2023/03/28 05:47:34;;;;;;;0.00;0.00;;;;;;;9.21;71.58;100505.06;7352230;19;20723;-56
2023/03/28 05:50:01;;;;;;;0.00;0.00;;;;;;;9.23;72.24;100498.09;7349499;19;20581;-58
2023/03/28 05:52:26;;;;;;;0.00;0.00;;;;;;;9.24;72.09;100489.41;7351068;19;20362;-58
2023/03/28 05:54:54;;;;;;;0.00;0.00;;;;;;;9.23;71.20;100487.69;7353280;19;20014;-58
2023/03/28 05:57:20;;;;;;;0.10;0.10;;;;;;;9.27;72.27;100494.53;7352885;19;20576;-58
2023/03/28 05:59:47;;;;;;;0.00;0.00;;;;;;;9.28;72.18;100491.06;7343098;19;20011;-58
2023/03/28 06:02:14;;;;;;;0.00;0.00;;;;;;;9.29;72.09;100477.13;7353285;19;20017;-58
2023/03/28 06:04:41;;;;;;;0.00;0.00;;;;;;;9.31;72.47;100480.53;7352557;19;20031;-57
2023/03/28 06:07:07;;;;;;;0.00;0.00;;;;;;;9.28;71.33;100471.06;7350022;19;20056;-58
2023/03/28 06:09:34;;;;;;;0.00;0.00;;;;;;;9.35;72.18;100479.59;7351508;19;20537;-58
2023/03/28 06:12:00;;;;;;;0.10;0.10;;;;;;;9.36;72.09;100474.34;7354901;19;20019;-58
2023/03/28 06:14:27;;;;;;;0.08;0.08;;;;;;;9.39;72.59;100483.00;7349896;19;20018;-58
2023/03/28 06:16:53;;;;;;;0.00;0.00;;;;;;;9.41;72.38;100466.44;7353281;19;20031;-58
2023/03/28 06:19:18;;;;;;;0.00;0.00;;;;;;;9.42;72.32;100460.31;7350519;19;20052;-58
2023/03/28 06:21:43;;;;;;;0.00;0.00;;;;;;;9.45;71.71;100464.63;7347584;19;25460;-58
2023/03/28 06:24:10;;;;;;;0.00;0.00;;;;;;;9.46;71.24;100448.94;7351304;19;20813;-58
2023/03/28 06:26:35;;;;;;;0.05;0.05;;;;;;;9.51;70.30;100457.53;7350553;19;20128;-58
2023/03/28 06:29:01;;;;;;;0.00;0.00;;;;;;;9.54;70.84;100456.59;7352630;19;20109;-58
2023/03/28 06:31:26;;;;;;;0.00;0.00;;;;;;;9.53;70.97;100455.75;7344786;19;20007;-57
2023/03/28 06:33:52;;;;;;;0.00;0.00;;;;;;;9.44;70.64;100439.47;7357980;19;20414;-58
2023/03/28 06:36:18;;;;;;;0.10;0.10;;;;;;;9.49;71.16;100427.19;7356452;19;20006;-58
2023/03/28 06:38:44;;;;;;;0.10;0.10;;;;;;;9.49;71.83;100433.25;7355779;19;20014;-58
2023/03/28 06:41:10;;;;;;;0.00;0.00;;;;;;;9.47;71.65;100428.94;7360991;19;20026;-58
2023/03/28 06:43:35;;;;;;;0.00;0.00;;;;;;;9.47;71.57;100439.38;7353868;19;20002;-57
2023/03/28 06:46:01;;;;;;;0.10;0.10;;;;;;;9.43;71.66;100425.56;7335109;19;20117;-58
2023/03/28 06:48:30;;;;;;;0.00;0.00;;;;;;;9.44;72.07;100426.44;7355124;19;20023;-58
2023/03/28 06:50:59;;;;;;;0.00;0.00;;;;;;;9.40;71.96;100423.03;7356295;19;20051;-58
2023/03/28 06:53:25;;;;;;;0.10;0.10;;;;;;;9.45;71.66;100428.13;7358421;19;20103;-59
2023/03/28 06:55:52;;;;;;;0.00;0.00;;;;;;;9.44;72.19;100411.66;7359745;19;20017;-58
2023/03/28 06:58:18;;;;;;;0.00;0.00;;;;;;;9.45;71.47;100408.13;7353751;19;20054;-57
2023/03/28 07:00:43;;;;;;;0.00;0.00;;;;;;;9.45;71.48;100400.31;7357356;19;20491;-58
2023/03/28 07:03:10;;;;;;;0.10;0.10;;;;;;;9.44;72.32;100403.81;7356470;19;20038;-58
2023/03/28 07:05:40;;;;;;;0.00;0.00;;;;;;;9.41;73.00;100388.25;7357172;19;20018;-59
2023/03/28 07:08:06;;;;;;;0.00;0.00;;;;;;;9.43;72.43;100391.69;7358425;19;20630;-58
2023/03/28 07:10:31;;;;;;;0.10;0.10;;;;;;;9.44;72.55;100387.34;7345979;19;20228;-58
2023/03/28 07:12:57;;;;;;;0.10;0.10;;;;;;;9.45;73.14;100379.47;7349299;19;20795;-58
2023/03/28 07:15:22;;;;;;;0.00;0.00;;;;;;;9.37;72.99;100370.97;7361071;19;20108;-58
2023/03/28 07:17:48;;;;;;;0.00;0.00;;;;;;;9.45;73.23;100379.47;7359125;19;20025;-58
2023/03/28 07:20:13;;;;;;;0.00;0.00;;;;;;;9.48;73.12;100387.22;7358239;19;20038;-59
2023/03/28 07:22:39;;;;;;;0.10;0.10;;;;;;;9.51;74.09;100374.09;7360178;19;20026;-58
2023/03/28 07:25:06;;;;;;;0.00;0.00;;;;;;;9.53;73.90;100379.28;7360689;19;20002;-58
2023/03/28 07:27:32;;;;;;;;;;;;;;;9.59;71.66;100377.41;7361282;19;20006;-59
2023/03/28 07:29:57;;;;;;;0.10;0.10;;;;;;;9.58;73.09;100375.69;7356990;19;20489;-57
2023/03/28 07:32:22;;;;;;;0.08;0.08;;;;;;;9.62;71.50;100376.47;7359728;19;20026;-58
2023/03/28 07:34:48;;;;;;;0.10;0.10;;;;;;;9.61;73.48;100359.09;7357061;19;20014;-58
2023/03/28 07:37:13;;;;;;;0.00;0.00;;;;;;;9.62;73.76;100364.28;7359982;19;20010;-58
2023/03/28 07:39:42;;;;;;;0.10;0.10;;;;;;;9.65;74.20;100341.66;7360419;19;20102;-58
2023/03/28 07:42:10;;;;;;;0.00;0.00;;;;;;;9.70;73.78;100342.41;7358319;19;20003;-58
2023/03/28 07:44:36;;;;;;;0.10;0.10;;;;;;;9.69;73.40;100335.47;7358703;19;20018;-58
2023/03/28 07:47:02;;;;;;;0.00;0.00;;;;;;;9.76;73.54;100342.22;7363236;19;20708;-58
2023/03/28 07:49:28;;;;;;;0.10;0.10;;;;;;;9.79;72.64;100327.38;7359723;19;20011;-58
2023/03/28 07:51:53;;;;;;;0.10;0.10;;;;;;;9.78;72.11;100325.66;7354938;19;20013;-57
2023/03/28 07:54:20;;;;;;;0.00;0.00;;;;;;;9.85;73.42;100335.03;7353245;19;20662;-58
2023/03/28 07:56:47;;;;;;;0.00;0.00;;;;;;;9.90;73.52;100334.91;7356681;19;20015;-57
2023/03/28 07:59:13;;;;;;;0.10;0.10;;;;;;;9.93;72.46;100332.22;7345251;19;20019;-58
2023/03/28 08:01:40;;;;;;;0.00;0.00;;;;;;;9.85;72.00;100311.56;7359175;19;20041;-59
2023/03/28 08:04:07;;;;;;;0.00;0.00;;;;;;;9.99;72.74;100319.03;7351823;19;20014;-59
2023/03/28 08:06:36;;;;;;;0.10;0.10;;;;;;;10.01;72.56;100316.38;7356316;19;20014;-59
2023/03/28 08:09:06;;;;;;;0.00;0.00;;;;;;;10.06;72.49;100312.75;7357598;19;20324;-60
2023/03/28 08:11:33;;;;;;;0.00;0.00;;;;;;;10.09;72.39;100309.22;7355908;19;20010;-59
2023/03/28 08:14:00;;;;;;;0.00;0.00;;;;;;;10.12;72.55;100303.91;7355643;19;20834;-59
2023/03/28 08:16:26;;;;;;;0.00;0.00;;;;;;;10.14;72.62;100305.59;7359240;19;20332;-60
2023/03/28 08:18:51;;;;;;;0.00;0.00;;;;;;;10.17;72.87;100285.50;7342378;19;20029;-59
2023/03/28 08:21:17;;;;;;;0.00;0.00;;;;;;;10.20;73.19;100288.06;7356657;19;20018;-59
2023/03/28 08:23:43;;;;;;;0.00;0.00;;;;;;;10.08;72.65;100250.94;7358227;19;20023;-59
2023/03/28 08:26:09;;;;;;;0.00;0.00;;;;;;;10.21;73.03;100263.66;7355546;19;20010;-60
2023/03/28 08:28:36;;;;;;;0.00;0.00;;;;;;;10.32;71.50;100274.69;7358894;19;20032;-59
2023/03/28 08:31:08;;;;;;;0.00;0.00;;;;;;;10.34;72.53;100272.88;7355878;19;20015;-59
2023/03/28 08:33:34;;;;;;;0.00;0.00;;;;;;;10.37;73.03;100271.03;7352308;19;20035;-59
2023/03/28 08:35:59;;;;;;;0.00;0.00;;;;;;;10.43;72.73;100271.75;7352235;19;20842;-61
2023/03/28 08:38:25;;;;;;;0.00;0.00;;;;;;;10.48;72.91;100268.09;7351189;19;20011;-61
2023/03/28 08:41:04;;;;;;;0.00;0.00;;;;;;;10.56;71.44;100280.94;7358686;19;20022;-60
2023/03/28 08:43:55;;;;;;;0.00;0.00;;;;;;;10.62;71.63;100263.34;7352750;19;20379;-61
2023/03/28 08:46:23;;;;;;;0.10;0.10;;;;;;;10.29;71.71;100196.47;7255466;19;2004442;-61
2023/03/28 08:48:51;;;;;;;0.10;0.10;;;;;;;10.69;72.25;100250.09;7358068;19;20089;-60
2023/03/28 08:51:34;;;;;;;0.10;0.10;;;;;;;10.82;71.93;100267.09;7354499;19;20022;-60
2023/03/28 08:54:22;;;;;;;0.00;0.00;;;;;;;10.86;71.93;100260.91;7357026;19;20015;-59
2023/03/28 08:56:56;;;;;;;0.00;0.00;;;;;;;10.90;72.04;100265.97;7356651;19;20681;-60
2023/03/28 08:59:38;;;;;;;0.00;0.00;;;;;;;10.84;72.67;100249.63;7357172;19;20751;-61
2023/03/28 09:02:18;;;;;;;0.00;0.00;;;;;;;10.97;72.13;100263.16;7342335;19;20021;-60
2023/03/28 09:04:44;;;;;;;0.00;0.00;;;;;;;11.01;70.92;100255.19;7360064;19;20018;-60
2023/03/28 09:07:45;;;;;;;0.00;0.00;;;;;;;10.97;71.77;100242.28;7353749;19;21378;-60
2023/03/28 09:10:37;;;;;;;0.00;0.00;;;;;;;11.14;71.73;100253.88;7257392;19;2004261;-59
2023/03/28 09:13:17;;;;;;;0.00;0.00;;;;;;;11.18;71.55;100257.25;7358500;19;20600;-59
2023/03/28 09:16:20;;;;;;;0.00;0.00;;;;;;;11.23;70.64;100247.50;7358059;19;20027;-59
2023/03/28 09:19:19;;;;;;;0.05;0.05;;;;;;;11.27;71.12;100245.66;7254231;19;2004235;-60
2023/03/28 09:21:45;;;;;;;0.10;0.10;;;;;;;11.25;72.29;100245.69;7253512;19;2004524;-61
2023/03/28 09:24:33;;;;;;;0.00;0.00;;;;;;;11.31;71.04;100247.28;7353872;19;20011;-58
2023/03/28 09:27:04;;;;;;;0.10;0.10;;;;;;;11.34;71.77;100245.38;7356527;19;21233;-59
2023/03/28 09:29:33;;;;;;;0.00;0.00;;;;;;;11.36;71.72;100245.38;7355346;19;20015;-59
2023/03/28 09:32:25;;;;;;;0.10;0.10;;;;;;;11.20;71.30;100202.31;7351051;19;20410;-60
2023/03/28 09:34:51;;;;;;;0.05;0.05;;;;;;;11.41;72.06;100228.63;7358289;19;20027;-60
2023/03/28 09:37:34;;;;;;;0.00;0.00;;;;;;;11.51;71.17;100239.63;7354505;19;20010;-60
2023/03/28 09:40:11;;;;;;;0.00;0.00;;;;;;;11.55;71.57;100230.75;7355908;19;20042;-59
2023/03/28 09:42:43;;;;;;;0.00;0.00;;;;;;;11.62;71.52;100231.41;7358165;19;20097;-60
2023/03/28 09:45:29;;;;;;;0.00;0.00;;;;;;;11.65;71.22;100226.91;7355634;19;20014;-61
2023/03/28 09:47:54;;;;;;;0.00;0.00;;;;;;;11.66;71.53;100222.56;7350685;19;20019;-60
2023/03/28 09:50:20;;;;;;;0.00;0.00;;;;;;;11.68;72.16;100220.72;7354492;19;20026;-59
2023/03/28 09:52:48;;;;;;;0.00;0.00;;;;;;;11.74;71.53;100225.72;7335820;19;20026;-59
2023/03/28 09:55:23;;;;;;;0.10;0.10;;;;;;;11.81;71.42;100221.13;7348822;19;20477;-59
2023/03/28 09:58:06;;;;;;;0.10;0.10;;;;;;;11.86;71.17;100214.00;7352131;19;20023;-63
2023/03/28 10:00:46;;;;;;;0.10;0.10;;;;;;;11.90;71.50;100211.22;7353855;19;20018;-62
2023/03/28 10:03:21;;;;;;;0.00;0.00;;;;;;;11.93;71.72;100210.28;7330786;19;20014;-62
2023/03/28 10:05:49;;;;;;;0.00;0.00;;;;;;;11.95;71.51;100203.22;7354773;19;20018;-63
2023/03/28 10:08:22;;;;;;;0.00;0.00;;;;;;;12.02;71.34;100199.47;7349285;19;20796;-62
2023/03/28 10:11:15;;;;;;;0.03;0.03;;;;;;;12.09;70.62;100195.72;7353962;19;20021;-63
2023/03/28 10:13:46;;;;;;;0.10;0.10;;;;;;;12.10;71.26;100194.81;7253667;19;2004526;-62
2023/03/28 10:16:14;;;;;;;0.00;0.00;;;;;;;12.12;71.35;100179.91;7355416;19;20010;-62
2023/03/28 10:18:41;;;;;;;0.00;0.00;;;;;;;12.19;71.24;100186.63;7354234;19;20528;-62
2023/03/28 10:21:12;;;;;;;0.00;0.00;;;;;;;12.20;71.35;100167.38;7353532;19;20026;-63
2023/03/28 10:23:41;;;;;;;0.10;0.10;;;;;;;12.24;71.37;100169.88;7354641;19;20011;-62
2023/03/28 10:26:08;;;;;;;0.00;0.00;;;;;;;12.33;70.84;100178.25;7353631;19;20018;-62
2023/03/28 10:28:35;;;;;;;;;;;;;;;12.45;70.13;100176.91;7355137;19;20010;-63
2023/03/28 10:31:02;;;;;;;0.10;0.10;;;;;;;12.45;71.18;100163.81;7351791;19;19921;-62
2023/03/28 10:33:30;;;;;;;0.10;0.10;;;;;;;12.54;70.77;100170.47;7350108;19;20034;-60
2023/03/28 10:36:02;;;;;;;0.10;0.10;;;;;;;12.60;70.75;100150.13;7353017;19;20568;-63
2023/03/28 10:38:44;;;;;;;0.10;0.10;;;;;;;12.67;70.58;100148.97;7352364;19;20653;-63
2023/03/28 10:41:18;;;;;;;0.10;0.10;;;;;;;12.77;70.57;100144.19;7351281;19;20111;-62
2023/03/28 10:43:43;;;;;;;0.10;0.10;;;;;;;12.84;71.06;100136.94;7352948;19;20006;-62
2023/03/28 10:46:17;;;;;;;0.10;0.10;;;;;;;12.95;71.29;100124.25;7348293;19;21394;-62
2023/03/28 10:49:05;;;;;;;0.00;0.00;;;;;;;13.13;71.42;100113.00;7354988;19;20014;-62
2023/03/28 10:51:32;;;;;;;0.10;0.10;;;;;;;13.19;71.58;100101.41;7352213;19;20017;-63
2023/03/28 10:54:14;;;;;;;0.03;0.03;;;;;;;13.48;71.66;100098.41;7353339;19;20014;-62
2023/03/28 10:56:51;;;;;;;0.10;0.10;;;;;;;13.72;71.42;100096.44;7355483;19;20015;-62
2023/03/28 10:59:31;;;;;;;0.10;0.10;;;;;;;13.99;71.54;100110.09;7353487;19;20717;-63
2023/03/28 11:02:06;;;;;;;0.10;0.10;;;;;;;14.25;71.29;100116.75;7352753;19;20027;-62
2023/03/28 11:04:46;;;;;;;0.10;0.10;;;;;;;14.42;70.68;100107.19;7354142;19;20572;-62
2023/03/28 11:07:21;;;;;;;0.10;0.10;;;;;;;14.59;70.38;100109.88;7354227;19;20011;-62
2023/03/28 11:10:22;;;;;;;0.10;0.10;;;;;;;14.70;69.35;100102.34;7350664;19;20014;-63
2023/03/28 11:13:15;;;;;;;0.10;0.10;;;;;;;14.76;69.20;100112.56;7248523;19;2004413;-63
2023/03/28 11:15:46;;;;;;;0.10;0.10;;;;;;;14.76;68.76;100107.28;7252373;19;2004529;-62
2023/03/28 11:18:24;;;;;;;0.10;0.10;;;;;;;14.74;68.61;100106.50;7349755;19;20176;-63
2023/03/28 11:21:08;;;;;;;;;;;;;;;14.69;67.60;100100.63;7358685;19;20010;-62
2023/03/28 11:23:52;;;;;;;0.00;0.00;;;;;;;14.53;68.41;100099.69;7357831;19;19923;-62
2023/03/28 11:26:25;;;;;;;0.10;0.10;;;;;;;14.45;68.70;100091.31;7355695;19;20025;-63
2023/03/28 11:29:00;;;;;;;0.10;0.10;;;;;;;14.33;68.58;100081.38;7359888;19;20019;-62
2023/03/28 11:31:31;;;;;;;0.00;0.00;;;;;;;14.24;69.57;100080.91;7356974;19;20010;-63
2023/03/28 11:34:38;;;;;;;0.10;0.10;;;;;;;14.19;68.95;100090.78;7357679;19;20046;-62
2023/03/28 11:37:17;;;;;;;0.10;0.10;;;;;;;14.14;68.85;100087.50;7252899;19;2004243;-62
2023/03/28 11:39:55;;;;;;;0.10;0.10;;;;;;;14.09;69.59;100086.88;7359464;19;20006;-63
2023/03/28 11:42:35;;;;;;;0.08;0.08;;;;;;;14.06;69.56;100084.38;7353964;19;20015;-63
2023/03/28 11:45:25;;;;;;;0.10;0.10;;;;;;;14.02;70.40;100073.16;7359627;19;20002;-63
2023/03/28 11:48:04;;;;;;;0.10;0.10;;;;;;;14.02;70.51;100088.06;7359619;19;20015;-62